sensor_id;sensor_type;location;lat;lon;timestamp;pressure;altitude;pressure_sealevel;temperature;humidity
6204;BME280;3135;42.602;23.468;2023-07-13T00:02:09;93068.88;;;22.16;76.78
6204;BME280;3135;42.602;23.468;2023-07-13T00:04:35;93083.69;;;22.35;78.54
6204;BME280;3135;42.602;23.468;2023-07-13T00:07:01;93082.75;;;22.47;78.65
6204;BME280;3135;42.602;23.468;2023-07-13T00:09:26;93079.84;;;22.55;81.02
6204;BME280;3135;42.602;23.468;2023-07-13T00:11:56;93082.97;;;22.38;78.44
6204;BME280;3135;42.602;23.468;2023-07-13T00:14:24;93076.72;;;22.37;80.83
6204;BME280;3135;42.602;23.468;2023-07-13T00:16:49;93070.69;;;22.28;79.69
6204;BME280;3135;42.602;23.468;2023-07-13T00:19:15;93052.88;;;22.15;78.91
6204;BME280;3135;42.602;23.468;2023-07-13T00:21:41;93064.81;;;22.26;80.04
6204;BME280;3135;42.602;23.468;2023-07-13T00:24:08;93068.59;;;22.22;78.25
6204;BME280;3135;42.602;23.468;2023-07-13T00:26:38;93079.03;;;22.19;79.97
6204;BME280;3135;42.602;23.468;2023-07-13T00:29:04;93064.31;;;22.05;80.30
6204;BME280;3135;42.602;23.468;2023-07-13T00:31:33;93054.31;;;21.93;80.02
6204;BME280;3135;42.602;23.468;2023-07-13T00:33:59;93059.13;;;22.00;81.22
6204;BME280;3135;42.602;23.468;2023-07-13T00:36:25;93063.25;;;22.09;80.76
6204;BME280;3135;42.602;23.468;2023-07-13T00:38:51;93049.75;;;22.13;83.00
6204;BME280;3135;42.602;23.468;2023-07-13T00:41:17;93044.47;;;22.04;82.03
6204;BME280;3135;42.602;23.468;2023-07-13T00:43:42;93044.75;;;21.99;83.36
6204;BME280;3135;42.602;23.468;2023-07-13T00:46:16;93046.63;;;21.79;82.92
6204;BME280;3135;42.602;23.468;2023-07-13T00:48:42;93028.53;;;21.71;82.33
6204;BME280;3135;42.602;23.468;2023-07-13T00:51:10;93047.91;;;21.85;81.42
6204;BME280;3135;42.602;23.468;2023-07-13T00:53:36;93032.84;;;21.56;81.43
6204;BME280;3135;42.602;23.468;2023-07-13T00:56:02;93052.66;;;21.73;83.81
6204;BME280;3135;42.602;23.468;2023-07-13T00:58:28;93052.41;;;21.62;86.31
6204;BME280;3135;42.602;23.468;2023-07-13T01:00:54;93051.72;;;21.49;85.30
6204;BME280;3135;42.602;23.468;2023-07-13T01:03:19;93038.63;;;21.39;85.19
6204;BME280;3135;42.602;23.468;2023-07-13T01:05:47;93049.69;;;21.62;87.02
6204;BME280;3135;42.602;23.468;2023-07-13T01:08:14;93042.06;;;21.67;88.16
6204;BME280;3135;42.602;23.468;2023-07-13T01:10:39;93051.78;;;21.68;86.66
6204;BME280;3135;42.602;23.468;2023-07-13T01:13:07;93054.50;;;21.68;86.89
6204;BME280;3135;42.602;23.468;2023-07-13T01:15:37;93052.50;;;21.65;86.43
6204;BME280;3135;42.602;23.468;2023-07-13T01:18:05;93041.34;;;21.55;84.24
6204;BME280;3135;42.602;23.468;2023-07-13T01:20:32;93018.56;;;21.43;85.40
6204;BME280;3135;42.602;23.468;2023-07-13T01:23:05;93035.84;;;21.51;85.34
6204;BME280;3135;42.602;23.468;2023-07-13T01:25:31;93056.44;;;21.68;86.33
6204;BME280;3135;42.602;23.468;2023-07-13T01:27:57;93036.09;;;21.62;87.68
6204;BME280;3135;42.602;23.468;2023-07-13T01:30:22;93032.06;;;21.40;85.64
6204;BME280;3135;42.602;23.468;2023-07-13T01:32:48;93029.75;;;21.26;85.79
6204;BME280;3135;42.602;23.468;2023-07-13T01:35:13;93025.34;;;21.22;86.22
6204;BME280;3135;42.602;23.468;2023-07-13T01:37:39;93014.69;;;21.13;85.69
6204;BME280;3135;42.602;23.468;2023-07-13T01:40:05;93023.34;;;21.18;86.93
6204;BME280;3135;42.602;23.468;2023-07-13T01:42:30;93026.78;;;21.31;89.19
6204;BME280;3135;42.602;23.468;2023-07-13T01:44:56;93024.16;;;21.35;90.44
6204;BME280;3135;42.602;23.468;2023-07-13T01:47:22;93047.16;;;21.37;89.32
6204;BME280;3135;42.602;23.468;2023-07-13T01:49:48;93019.75;;;21.14;88.25
6204;BME280;3135;42.602;23.468;2023-07-13T01:52:15;93041.34;;;21.23;88.96
6204;BME280;3135;42.602;23.468;2023-07-13T01:54:40;93042.47;;;21.22;90.30
6204;BME280;3135;42.602;23.468;2023-07-13T01:57:06;93042.91;;;21.08;89.41
6204;BME280;3135;42.602;23.468;2023-07-13T01:59:31;93060.16;;;21.16;89.15
6204;BME280;3135;42.602;23.468;2023-07-13T02:01:58;93053.56;;;21.17;88.94
6204;BME280;3135;42.602;23.468;2023-07-13T02:04:24;93025.19;;;20.99;88.75
6204;BME280;3135;42.602;23.468;2023-07-13T02:06:49;93036.91;;;21.03;89.26
6204;BME280;3135;42.602;23.468;2023-07-13T02:09:14;93042.69;;;21.01;89.63
6204;BME280;3135;42.602;23.468;2023-07-13T02:11:40;93041.56;;;21.02;89.76
6204;BME280;3135;42.602;23.468;2023-07-13T02:14:05;93042.28;;;20.71;89.76
6204;BME280;3135;42.602;23.468;2023-07-13T02:16:31;93036.09;;;20.58;90.20
6204;BME280;3135;42.602;23.468;2023-07-13T02:18:56;93049.81;;;20.78;92.11
6204;BME280;3135;42.602;23.468;2023-07-13T02:21:22;93050.34;;;20.83;91.34
6204;BME280;3135;42.602;23.468;2023-07-13T02:23:48;93046.47;;;20.68;90.89
6204;BME280;3135;42.602;23.468;2023-07-13T02:26:14;93040.06;;;20.61;90.48
6204;BME280;3135;42.602;23.468;2023-07-13T02:28:39;93031.72;;;20.54;91.62
6204;BME280;3135;42.602;23.468;2023-07-13T02:31:11;93053.47;;;20.70;90.70
6204;BME280;3135;42.602;23.468;2023-07-13T02:33:37;93050.97;;;20.36;90.04
6204;BME280;3135;42.602;23.468;2023-07-13T02:36:03;93047.09;;;20.50;91.08
6204;BME280;3135;42.602;23.468;2023-07-13T02:38:31;93019.81;;;20.46;91.05
6204;BME280;3135;42.602;23.468;2023-07-13T02:40:59;93053.22;;;20.47;90.23
6204;BME280;3135;42.602;23.468;2023-07-13T02:43:24;93061.88;;;20.64;92.73
6204;BME280;3135;42.602;23.468;2023-07-13T02:45:50;93012.72;;;20.41;92.08
6204;BME280;3135;42.602;23.468;2023-07-13T02:48:15;93062.59;;;20.49;92.78
6204;BME280;3135;42.602;23.468;2023-07-13T02:50:41;93050.03;;;20.45;92.41
6204;BME280;3135;42.602;23.468;2023-07-13T02:53:06;93062.66;;;20.25;91.30
6204;BME280;3135;42.602;23.468;2023-07-13T02:55:31;93020.75;;;19.98;92.36
6204;BME280;3135;42.602;23.468;2023-07-13T02:57:57;93029.78;;;20.14;93.56
6204;BME280;3135;42.602;23.468;2023-07-13T03:00:23;93008.69;;;19.83;94.13
6204;BME280;3135;42.602;23.468;2023-07-13T03:02:48;93021.63;;;20.14;95.91
6204;BME280;3135;42.602;23.468;2023-07-13T03:05:15;93041.13;;;20.32;95.17
6204;BME280;3135;42.602;23.468;2023-07-13T03:07:41;93047.91;;;20.38;96.20
6204;BME280;3135;42.602;23.468;2023-07-13T03:10:07;93057.81;;;20.46;96.19
6204;BME280;3135;42.602;23.468;2023-07-13T03:12:33;93043.53;;;20.33;95.25
6204;BME280;3135;42.602;23.468;2023-07-13T03:14:58;93026.13;;;20.22;95.89
6204;BME280;3135;42.602;23.468;2023-07-13T03:17:24;93022.91;;;20.32;97.86
6204;BME280;3135;42.602;23.468;2023-07-13T03:19:49;93033.38;;;20.46;99.16
6204;BME280;3135;42.602;23.468;2023-07-13T03:22:19;93035.66;;;20.56;98.26
6204;BME280;3135;42.602;23.468;2023-07-13T03:24:45;93041.25;;;20.35;99.96
6204;BME280;3135;42.602;23.468;2023-07-13T03:27:10;93046.78;;;20.39;98.75
6204;BME280;3135;42.602;23.468;2023-07-13T03:29:36;93059.09;;;20.36;98.46
6204;BME280;3135;42.602;23.468;2023-07-13T03:32:01;93033.16;;;20.23;100.00
6204;BME280;3135;42.602;23.468;2023-07-13T03:34:29;93035.41;;;20.21;100.00
6204;BME280;3135;42.602;23.468;2023-07-13T03:36:55;93048.47;;;20.43;100.00
6204;BME280;3135;42.602;23.468;2023-07-13T03:39:20;93053.78;;;20.40;100.00
6204;BME280;3135;42.602;23.468;2023-07-13T03:41:46;93041.63;;;20.22;100.00
6204;BME280;3135;42.602;23.468;2023-07-13T03:44:11;93053.44;;;20.54;100.00
6204;BME280;3135;42.602;23.468;2023-07-13T03:46:37;93054.44;;;20.61;100.00
6204;BME280;3135;42.602;23.468;2023-07-13T03:49:04;93042.28;;;20.71;100.00
6204;BME280;3135;42.602;23.468;2023-07-13T03:51:30;93043.84;;;20.72;100.00
6204;BME280;3135;42.602;23.468;2023-07-13T03:53:56;93054.72;;;21.00;100.00
6204;BME280;3135;42.602;23.468;2023-07-13T03:56:22;93047.59;;;20.96;100.00
6204;BME280;3135;42.602;23.468;2023-07-13T03:58:49;93055.91;;;21.03;100.00
6204;BME280;3135;42.602;23.468;2023-07-13T04:01:16;93053.06;;;21.11;100.00
6204;BME280;3135;42.602;23.468;2023-07-13T04:03:42;93054.97;;;20.95;100.00
6204;BME280;3135;42.602;23.468;2023-07-13T04:06:14;93055.88;;;21.15;100.00
6204;BME280;3135;42.602;23.468;2023-07-13T04:08:40;93040.25;;;21.12;100.00
6204;BME280;3135;42.602;23.468;2023-07-13T04:11:06;93048.50;;;21.00;100.00
6204;BME280;3135;42.602;23.468;2023-07-13T04:13:32;93065.06;;;21.10;100.00
6204;BME280;3135;42.602;23.468;2023-07-13T04:15:58;93069.03;;;21.13;100.00
6204;BME280;3135;42.602;23.468;2023-07-13T04:18:23;93064.59;;;20.92;100.00
6204;BME280;3135;42.602;23.468;2023-07-13T04:20:50;93070.09;;;20.80;100.00
6204;BME280;3135;42.602;23.468;2023-07-13T04:23:18;93059.25;;;20.96;100.00
6204;BME280;3135;42.602;23.468;2023-07-13T04:25:48;93073.19;;;21.38;100.00
6204;BME280;3135;42.602;23.468;2023-07-13T04:28:18;93062.84;;;21.44;95.51
6204;BME280;3135;42.602;23.468;2023-07-13T04:30:44;93060.91;;;21.44;92.43
6204;BME280;3135;42.602;23.468;2023-07-13T04:33:10;93063.72;;;21.48;95.61
6204;BME280;3135;42.602;23.468;2023-07-13T04:35:36;93072.59;;;21.61;96.02
6204;BME280;3135;42.602;23.468;2023-07-13T04:38:02;93050.13;;;21.48;100.00
6204;BME280;3135;42.602;23.468;2023-07-13T04:40:29;93065.75;;;21.51;100.00
6204;BME280;3135;42.602;23.468;2023-07-13T04:42:54;93067.69;;;21.51;99.66
6204;BME280;3135;42.602;23.468;2023-07-13T04:45:21;93055.22;;;21.50;99.08
6204;BME280;3135;42.602;23.468;2023-07-13T04:47:49;93063.38;;;21.65;93.03
6204;BME280;3135;42.602;23.468;2023-07-13T04:50:14;93078.91;;;21.65;94.17
6204;BME280;3135;42.602;23.468;2023-07-13T05:01:04;93089.72;;;21.46;100.00
6204;BME280;3135;42.602;23.468;2023-07-13T05:03:30;93091.38;;;21.66;100.00
6204;BME280;3135;42.602;23.468;2023-07-13T05:06:00;93099.63;;;21.85;100.00
6204;BME280;3135;42.602;23.468;2023-07-13T05:08:26;93114.16;;;22.09;100.00
6204;BME280;3135;42.602;23.468;2023-07-13T05:10:52;93112.31;;;22.29;100.00
6204;BME280;3135;42.602;23.468;2023-07-13T05:13:17;93110.91;;;22.35;99.89
6204;BME280;3135;42.602;23.468;2023-07-13T05:15:43;93098.69;;;22.29;100.00
6204;BME280;3135;42.602;23.468;2023-07-13T05:18:08;93103.16;;;22.37;100.00
6204;BME280;3135;42.602;23.468;2023-07-13T05:20:34;93110.47;;;22.68;100.00
6204;BME280;3135;42.602;23.468;2023-07-13T05:22:59;93105.34;;;22.66;100.00
6204;BME280;3135;42.602;23.468;2023-07-13T05:25:25;93117.50;;;22.88;98.80
6204;BME280;3135;42.602;23.468;2023-07-13T05:27:50;93108.56;;;23.07;96.34
6204;BME280;3135;42.602;23.468;2023-07-13T05:30:16;93106.78;;;23.15;96.64
6204;BME280;3135;42.602;23.468;2023-07-13T05:32:41;93101.94;;;23.28;99.09
6204;BME280;3135;42.602;23.468;2023-07-13T05:35:07;93121.09;;;23.74;99.01
6204;BME280;3135;42.602;23.468;2023-07-13T05:37:33;93109.22;;;23.85;98.88
6204;BME280;3135;42.602;23.468;2023-07-13T05:39:58;93119.25;;;24.27;96.55
6204;BME280;3135;42.602;23.468;2023-07-13T05:42:24;93101.72;;;24.55;97.20
6204;BME280;3135;42.602;23.468;2023-07-13T05:44:49;93115.03;;;24.86;97.30
6204;BME280;3135;42.602;23.468;2023-07-13T05:47:14;93113.41;;;24.82;95.22
6204;BME280;3135;42.602;23.468;2023-07-13T05:49:41;93117.69;;;25.09;95.69
6204;BME280;3135;42.602;23.468;2023-07-13T05:52:06;93130.75;;;25.57;92.28
6204;BME280;3135;42.602;23.468;2023-07-13T05:54:32;93123.31;;;25.57;93.11
6204;BME280;3135;42.602;23.468;2023-07-13T05:56:57;93128.03;;;25.60;93.71
6204;BME280;3135;42.602;23.468;2023-07-13T05:59:23;93127.69;;;26.03;89.37
6204;BME280;3135;42.602;23.468;2023-07-13T06:01:49;93105.81;;;26.10;89.63
6204;BME280;3135;42.602;23.468;2023-07-13T06:04:14;93123.09;;;26.14;87.15
6204;BME280;3135;42.602;23.468;2023-07-13T06:06:40;93131.44;;;26.32;87.85
6204;BME280;3135;42.602;23.468;2023-07-13T06:09:05;93130.16;;;26.66;88.75
6204;BME280;3135;42.602;23.468;2023-07-13T06:11:31;93089.69;;;26.45;90.26
6204;BME280;3135;42.602;23.468;2023-07-13T06:13:56;93113.06;;;26.94;84.76
6204;BME280;3135;42.602;23.468;2023-07-13T06:16:22;93132.50;;;27.34;83.00
6204;BME280;3135;42.602;23.468;2023-07-13T06:18:48;93119.22;;;27.64;81.31
6204;BME280;3135;42.602;23.468;2023-07-13T06:21:16;93125.41;;;27.29;78.34
6204;BME280;3135;42.602;23.468;2023-07-13T06:23:43;93105.94;;;26.79;84.13
6204;BME280;3135;42.602;23.468;2023-07-13T06:26:09;93116.66;;;27.06;85.47
6204;BME280;3135;42.602;23.468;2023-07-13T06:28:35;93119.88;;;27.22;83.86
6204;BME280;3135;42.602;23.468;2023-07-13T06:31:02;93120.66;;;27.15;82.36
6204;BME280;3135;42.602;23.468;2023-07-13T06:33:29;93127.00;;;27.37;82.74
6204;BME280;3135;42.602;23.468;2023-07-13T06:35:55;93119.88;;;27.15;82.39
6204;BME280;3135;42.602;23.468;2023-07-13T06:38:20;93127.72;;;27.16;79.98
6204;BME280;3135;42.602;23.468;2023-07-13T06:40:46;93109.31;;;27.20;81.36
6204;BME280;3135;42.602;23.468;2023-07-13T06:43:11;93118.44;;;27.60;82.21
6204;BME280;3135;42.602;23.468;2023-07-13T06:45:44;93123.94;;;27.53;78.42
6204;BME280;3135;42.602;23.468;2023-07-13T06:48:15;93122.44;;;27.84;78.78
6204;BME280;3135;42.602;23.468;2023-07-13T06:50:41;93135.03;;;27.96;76.59
6204;BME280;3135;42.602;23.468;2023-07-13T06:53:07;93120.00;;;27.58;77.39
6204;BME280;3135;42.602;23.468;2023-07-13T06:55:32;93135.00;;;27.92;78.31
6204;BME280;3135;42.602;23.468;2023-07-13T06:57:58;93134.25;;;28.13;78.68
6204;BME280;3135;42.602;23.468;2023-07-13T07:00:23;93131.91;;;28.30;76.40
6204;BME280;3135;42.602;23.468;2023-07-13T07:02:49;93133.06;;;28.21;79.77
6204;BME280;3135;42.602;23.468;2023-07-13T07:05:14;93130.31;;;28.18;73.28
6204;BME280;3135;42.602;23.468;2023-07-13T07:07:40;93133.47;;;28.56;74.23
6204;BME280;3135;42.602;23.468;2023-07-13T07:10:05;93129.56;;;28.57;74.35
6204;BME280;3135;42.602;23.468;2023-07-13T07:12:31;93131.09;;;28.65;71.49
6204;BME280;3135;42.602;23.468;2023-07-13T07:14:56;93125.16;;;29.06;69.16
6204;BME280;3135;42.602;23.468;2023-07-13T07:17:22;93130.34;;;28.64;71.77
6204;BME280;3135;42.602;23.468;2023-07-13T07:19:47;93149.19;;;28.76;69.62
6204;BME280;3135;42.602;23.468;2023-07-13T07:22:13;93120.13;;;28.25;69.81
6204;BME280;3135;42.602;23.468;2023-07-13T07:24:38;93141.34;;;28.39;69.28
6204;BME280;3135;42.602;23.468;2023-07-13T07:27:04;93128.78;;;28.42;68.69
6204;BME280;3135;42.602;23.468;2023-07-13T07:29:30;93119.72;;;28.63;68.68
6204;BME280;3135;42.602;23.468;2023-07-13T07:31:55;93134.16;;;29.17;68.41
6204;BME280;3135;42.602;23.468;2023-07-13T07:34:20;93115.25;;;29.26;66.78
6204;BME280;3135;42.602;23.468;2023-07-13T07:36:46;93114.94;;;28.88;67.79
6204;BME280;3135;42.602;23.468;2023-07-13T07:39:11;93122.47;;;28.63;69.47
6204;BME280;3135;42.602;23.468;2023-07-13T07:41:37;93135.31;;;29.30;66.56
6204;BME280;3135;42.602;23.468;2023-07-13T07:44:03;93130.19;;;29.32;66.67
6204;BME280;3135;42.602;23.468;2023-07-13T07:46:29;93117.94;;;29.40;69.31
6204;BME280;3135;42.602;23.468;2023-07-13T07:48:55;93112.06;;;29.35;65.14
6204;BME280;3135;42.602;23.468;2023-07-13T07:51:21;93087.84;;;28.90;66.97
6204;BME280;3135;42.602;23.468;2023-07-13T07:53:47;93113.63;;;29.46;67.51
6204;BME280;3135;42.602;23.468;2023-07-13T07:56:13;93112.84;;;29.46;65.83
6204;BME280;3135;42.602;23.468;2023-07-13T07:58:38;93097.94;;;29.29;66.77
6204;BME280;3135;42.602;23.468;2023-07-13T08:01:05;93117.13;;;29.58;65.70
6204;BME280;3135;42.602;23.468;2023-07-13T08:03:31;93090.72;;;29.64;64.56
6204;BME280;3135;42.602;23.468;2023-07-13T08:05:57;93118.84;;;30.00;65.20
6204;BME280;3135;42.602;23.468;2023-07-13T08:08:23;93088.91;;;30.02;66.58
6204;BME280;3135;42.602;23.468;2023-07-13T08:10:48;93091.19;;;30.18;63.14
6204;BME280;3135;42.602;23.468;2023-07-13T08:13:14;93110.91;;;30.58;63.62
6204;BME280;3135;42.602;23.468;2023-07-13T08:15:39;93096.19;;;30.30;62.48
6204;BME280;3135;42.602;23.468;2023-07-13T08:18:05;93075.19;;;30.43;63.81
6204;BME280;3135;42.602;23.468;2023-07-13T08:20:31;93086.84;;;30.17;62.88
6204;BME280;3135;42.602;23.468;2023-07-13T08:22:56;93067.38;;;30.38;62.78
6204;BME280;3135;42.602;23.468;2023-07-13T08:25:22;93084.03;;;30.69;63.63
6204;BME280;3135;42.602;23.468;2023-07-13T08:27:48;93078.41;;;30.79;65.09
6204;BME280;3135;42.602;23.468;2023-07-13T08:30:13;93097.28;;;31.19;61.08
6204;BME280;3135;42.602;23.468;2023-07-13T08:32:39;93025.94;;;30.87;60.19
6204;BME280;3135;42.602;23.468;2023-07-13T08:35:05;93088.34;;;31.45;60.70
6204;BME280;3135;42.602;23.468;2023-07-13T08:37:31;93078.28;;;31.28;60.45
6204;BME280;3135;42.602;23.468;2023-07-13T08:39:56;93075.03;;;31.37;58.92
6204;BME280;3135;42.602;23.468;2023-07-13T08:42:44;93093.56;;;31.97;59.13
6204;BME280;3135;42.602;23.468;2023-07-13T08:47:47;93092.03;;;32.20;56.09
6204;BME280;3135;42.602;23.468;2023-07-13T08:50:15;93091.66;;;32.18;56.10
6204;BME280;3135;42.602;23.468;2023-07-13T08:52:43;93079.44;;;32.19;56.35
6204;BME280;3135;42.602;23.468;2023-07-13T08:57:45;93090.94;;;32.41;56.07
6204;BME280;3135;42.602;23.468;2023-07-13T09:00:12;93085.63;;;32.73;52.94
6204;BME280;3135;42.602;23.468;2023-07-13T09:02:59;93096.66;;;33.20;53.10
6204;BME280;3135;42.602;23.468;2023-07-13T09:05:29;93091.88;;;33.21;52.90
6204;BME280;3135;42.602;23.468;2023-07-13T09:08:29;93103.47;;;33.16;54.18
6204;BME280;3135;42.602;23.468;2023-07-13T09:13:57;93100.63;;;33.39;52.16
6204;BME280;3135;42.602;23.468;2023-07-13T09:16:26;93108.22;;;33.95;53.83
6204;BME280;3135;42.602;23.468;2023-07-13T09:18:55;93119.84;;;33.70;54.51
6204;BME280;3135;42.602;23.468;2023-07-13T09:21:29;93127.13;;;33.80;54.16
6204;BME280;3135;42.602;23.468;2023-07-13T09:24:06;93124.66;;;34.22;54.78
6204;BME280;3135;42.602;23.468;2023-07-13T09:26:41;93127.03;;;34.56;51.24
6204;BME280;3135;42.602;23.468;2023-07-13T09:29:14;93129.00;;;35.04;52.42
6204;BME280;3135;42.602;23.468;2023-07-13T09:31:49;93128.16;;;34.75;51.97
6204;BME280;3135;42.602;23.468;2023-07-13T09:34:16;93105.78;;;34.82;50.37
6204;BME280;3135;42.602;23.468;2023-07-13T09:36:42;93119.81;;;34.75;47.49
6204;BME280;3135;42.602;23.468;2023-07-13T09:44:35;93136.41;;;35.24;47.17
6204;BME280;3135;42.602;23.468;2023-07-13T09:47:03;93141.81;;;35.60;48.05
6204;BME280;3135;42.602;23.468;2023-07-13T09:49:33;93138.19;;;35.76;44.52
6204;BME280;3135;42.602;23.468;2023-07-13T09:52:07;93123.88;;;35.90;45.39
6204;BME280;3135;42.602;23.468;2023-07-13T09:54:36;93114.56;;;36.35;44.21
6204;BME280;3135;42.602;23.468;2023-07-13T09:57:08;93126.16;;;36.59;44.35
6204;BME280;3135;42.602;23.468;2023-07-13T09:59:41;93105.47;;;36.47;45.13
6204;BME280;3135;42.602;23.468;2023-07-13T10:02:25;93114.69;;;36.44;46.44
6204;BME280;3135;42.602;23.468;2023-07-13T10:05:03;93119.75;;;35.95;45.23
6204;BME280;3135;42.602;23.468;2023-07-13T10:07:30;93097.69;;;35.75;45.08
6204;BME280;3135;42.602;23.468;2023-07-13T10:09:58;93113.91;;;36.31;45.63
6204;BME280;3135;42.602;23.468;2023-07-13T10:12:27;93119.59;;;36.66;45.10
6204;BME280;3135;42.602;23.468;2023-07-13T10:14:59;93093.88;;;36.11;45.16
6204;BME280;3135;42.602;23.468;2023-07-13T10:17:32;93073.53;;;35.59;46.16
6204;BME280;3135;42.602;23.468;2023-07-13T10:20:02;93098.00;;;36.57;45.24
6204;BME280;3135;42.602;23.468;2023-07-13T10:22:36;93100.41;;;37.15;45.21
6204;BME280;3135;42.602;23.468;2023-07-13T10:25:25;93099.25;;;37.60;42.74
6204;BME280;3135;42.602;23.468;2023-07-13T10:27:54;93095.19;;;38.36;42.35
6204;BME280;3135;42.602;23.468;2023-07-13T10:30:28;93099.00;;;38.60;40.52
6204;BME280;3135;42.602;23.468;2023-07-13T10:32:58;93106.13;;;38.21;41.38
6204;BME280;3135;42.602;23.468;2023-07-13T10:35:24;93064.84;;;38.16;39.41
6204;BME280;3135;42.602;23.468;2023-07-13T10:38:02;93095.97;;;38.95;40.61
6204;BME280;3135;42.602;23.468;2023-07-13T10:40:40;93073.78;;;39.10;40.59
6204;BME280;3135;42.602;23.468;2023-07-13T10:43:20;93088.13;;;39.30;39.07
6204;BME280;3135;42.602;23.468;2023-07-13T10:45:47;93095.00;;;39.99;38.49
6204;BME280;3135;42.602;23.468;2023-07-13T10:48:17;93093.78;;;40.00;34.49
6204;BME280;3135;42.602;23.468;2023-07-13T10:50:44;93060.91;;;39.49;37.53
6204;BME280;3135;42.602;23.468;2023-07-13T10:53:28;93089.16;;;39.60;35.36
6204;BME280;3135;42.602;23.468;2023-07-13T10:55:58;93080.78;;;39.51;41.05
6204;BME280;3135;42.602;23.468;2023-07-13T10:58:41;93080.66;;;39.27;36.65
6204;BME280;3135;42.602;23.468;2023-07-13T11:01:13;93075.38;;;39.39;37.83
6204;BME280;3135;42.602;23.468;2023-07-13T11:06:34;93069.09;;;38.79;38.05
6204;BME280;3135;42.602;23.468;2023-07-13T11:11:44;93063.50;;;38.79;35.52
6204;BME280;3135;42.602;23.468;2023-07-13T11:16:57;93032.72;;;38.02;36.24
6204;BME280;3135;42.602;23.468;2023-07-13T11:25:02;93041.91;;;38.71;37.01
6204;BME280;3135;42.602;23.468;2023-07-13T11:30:24;93042.72;;;39.08;36.07
6204;BME280;3135;42.602;23.468;2023-07-13T11:35:57;93038.03;;;39.60;34.71
6204;BME280;3135;42.602;23.468;2023-07-13T11:41:00;93009.66;;;39.95;35.35
6204;BME280;3135;42.602;23.468;2023-07-13T11:43:29;93041.25;;;40.38;33.21
6204;BME280;3135;42.602;23.468;2023-07-13T11:45:54;93024.44;;;40.38;33.94
6204;BME280;3135;42.602;23.468;2023-07-13T11:48:23;93037.19;;;40.72;36.33
6204;BME280;3135;42.602;23.468;2023-07-13T11:50:51;93024.25;;;40.41;32.34
6204;BME280;3135;42.602;23.468;2023-07-13T11:53:17;93023.81;;;40.00;33.50
6204;BME280;3135;42.602;23.468;2023-07-13T11:55:42;93006.88;;;38.97;33.96
6204;BME280;3135;42.602;23.468;2023-07-13T11:58:09;93015.22;;;38.70;33.23
6204;BME280;3135;42.602;23.468;2023-07-13T12:00:36;92996.44;;;39.53;34.66
6204;BME280;3135;42.602;23.468;2023-07-13T12:03:04;93013.41;;;40.34;33.54
6204;BME280;3135;42.602;23.468;2023-07-13T12:05:30;93019.84;;;39.74;33.93
6204;BME280;3135;42.602;23.468;2023-07-13T12:07:57;92984.75;;;38.44;34.96
6204;BME280;3135;42.602;23.468;2023-07-13T12:10:28;92995.94;;;38.63;35.48
6204;BME280;3135;42.602;23.468;2023-07-13T12:13:02;92963.34;;;38.32;35.60
6204;BME280;3135;42.602;23.468;2023-07-13T12:15:38;92992.28;;;39.21;35.85
6204;BME280;3135;42.602;23.468;2023-07-13T12:18:16;93008.66;;;39.74;32.79
6204;BME280;3135;42.602;23.468;2023-07-13T12:20:44;92994.06;;;39.60;33.38
6204;BME280;3135;42.602;23.468;2023-07-13T12:23:34;93001.34;;;39.76;36.19
6204;BME280;3135;42.602;23.468;2023-07-13T12:26:03;92978.38;;;40.05;32.82
6204;BME280;3135;42.602;23.468;2023-07-13T12:28:39;92999.94;;;40.56;32.49
6204;BME280;3135;42.602;23.468;2023-07-13T12:33:57;92986.41;;;41.18;32.03
6204;BME280;3135;42.602;23.468;2023-07-13T12:36:23;92989.00;;;40.82;32.42
6204;BME280;3135;42.602;23.468;2023-07-13T12:38:49;92985.13;;;40.80;30.30
6204;BME280;3135;42.602;23.468;2023-07-13T12:41:16;92967.56;;;41.33;32.66
6204;BME280;3135;42.602;23.468;2023-07-13T12:43:44;92960.84;;;41.01;30.14
6204;BME280;3135;42.602;23.468;2023-07-13T12:46:19;92952.47;;;40.29;31.16
6204;BME280;3135;42.602;23.468;2023-07-13T12:48:51;92967.63;;;40.37;31.90
6204;BME280;3135;42.602;23.468;2023-07-13T12:51:20;92966.97;;;40.75;33.00
6204;BME280;3135;42.602;23.468;2023-07-13T12:53:57;92968.41;;;41.09;32.29
6204;BME280;3135;42.602;23.468;2023-07-13T12:56:27;92942.44;;;41.53;32.70
6204;BME280;3135;42.602;23.468;2023-07-13T12:58:58;92961.75;;;41.96;30.51
6204;BME280;3135;42.602;23.468;2023-07-13T13:01:29;92955.41;;;41.51;32.50
6204;BME280;3135;42.602;23.468;2023-07-13T13:04:01;92960.50;;;41.23;32.62
6204;BME280;3135;42.602;23.468;2023-07-13T13:06:31;92934.41;;;41.46;34.46
6204;BME280;3135;42.602;23.468;2023-07-13T13:08:58;92949.28;;;41.23;34.50
6204;BME280;3135;42.602;23.468;2023-07-13T13:11:26;92933.53;;;41.40;33.58
6204;BME280;3135;42.602;23.468;2023-07-13T13:13:53;92946.31;;;41.41;33.47
6204;BME280;3135;42.602;23.468;2023-07-13T13:18:59;92931.59;;;41.31;33.19
6204;BME280;3135;42.602;23.468;2023-07-13T13:21:28;92937.59;;;41.39;32.65
6204;BME280;3135;42.602;23.468;2023-07-13T13:23:53;92928.28;;;41.33;32.68
6204;BME280;3135;42.602;23.468;2023-07-13T13:26:21;92920.00;;;40.85;32.44
6204;BME280;3135;42.602;23.468;2023-07-13T13:28:47;92899.09;;;40.56;32.35
6204;BME280;3135;42.602;23.468;2023-07-13T13:31:14;92903.38;;;40.19;34.06
6204;BME280;3135;42.602;23.468;2023-07-13T13:33:44;92929.81;;;40.66;33.64
6204;BME280;3135;42.602;23.468;2023-07-13T13:36:18;92919.34;;;40.51;34.20
6204;BME280;3135;42.602;23.468;2023-07-13T13:38:44;92915.53;;;40.78;34.11
6204;BME280;3135;42.602;23.468;2023-07-13T13:41:12;92936.44;;;40.92;31.88
6204;BME280;3135;42.602;23.468;2023-07-13T13:43:38;92929.06;;;41.19;33.42
6204;BME280;3135;42.602;23.468;2023-07-13T13:46:13;92917.75;;;40.74;32.73
6204;BME280;3135;42.602;23.468;2023-07-13T13:48:39;92917.13;;;40.31;33.29
6204;BME280;3135;42.602;23.468;2023-07-13T13:51:20;92927.66;;;40.13;33.47
6204;BME280;3135;42.602;23.468;2023-07-13T13:53:46;92878.75;;;39.56;33.41
6204;BME280;3135;42.602;23.468;2023-07-13T13:56:13;92919.00;;;39.59;35.48
6204;BME280;3135;42.602;23.468;2023-07-13T13:58:39;92907.97;;;39.98;34.17
6204;BME280;3135;42.602;23.468;2023-07-13T14:01:12;92905.84;;;40.17;36.12
6204;BME280;3135;42.602;23.468;2023-07-13T14:03:37;92896.00;;;40.45;34.75